sensor_id;sensor_type;location;lat;lon;timestamp;pressure;altitude;pressure_sealevel;temperature;humidity
8047;BME280;67150;42.516;23.358;2023-01-25T00:02:02;89137.06;;;13.13;48.43
8047;BME280;67150;42.516;23.358;2023-01-25T00:04:30;89145.00;;;13.09;48.55
8047;BME280;67150;42.516;23.358;2023-01-25T00:06:57;89136.78;;;13.05;48.66
8047;BME280;67150;42.516;23.358;2023-01-25T00:09:25;89138.41;;;13.06;48.58
8047;BME280;67150;42.516;23.358;2023-01-25T00:11:54;89147.31;;;12.99;48.60
8047;BME280;67150;42.516;23.358;2023-01-25T00:14:23;89150.16;;;12.94;48.78
8047;BME280;67150;42.516;23.358;2023-01-25T00:16:53;89142.56;;;12.94;48.69
8047;BME280;67150;42.516;23.358;2023-01-25T00:19:20;89146.94;;;12.92;48.75
8047;BME280;67150;42.516;23.358;2023-01-25T00:21:48;89133.00;;;12.87;48.76
8047;BME280;67150;42.516;23.358;2023-01-25T00:24:16;89139.91;;;12.85;48.88
8047;BME280;67150;42.516;23.358;2023-01-25T00:26:43;89141.84;;;12.81;48.85
8047;BME280;67150;42.516;23.358;2023-01-25T00:29:13;89141.03;;;12.81;48.98
8047;BME280;67150;42.516;23.358;2023-01-25T00:31:50;89139.41;;;12.80;48.72
8047;BME280;67150;42.516;23.358;2023-01-25T00:34:42;89136.09;;;12.79;49.02
8047;BME280;67150;42.516;23.358;2023-01-25T00:37:13;89137.31;;;12.74;48.95
8047;BME280;67150;42.516;23.358;2023-01-25T00:39:44;89138.91;;;12.75;48.78
8047;BME280;67150;42.516;23.358;2023-01-25T00:42:12;89139.72;;;12.75;49.13
8047;BME280;67150;42.516;23.358;2023-01-25T00:44:42;89134.06;;;12.72;49.09
8047;BME280;67150;42.516;23.358;2023-01-25T00:47:09;89119.94;;;12.69;48.86
8047;BME280;67150;42.516;23.358;2023-01-25T00:49:38;89124.72;;;12.61;49.04
8047;BME280;67150;42.516;23.358;2023-01-25T00:52:06;89120.69;;;12.59;49.21
8047;BME280;67150;42.516;23.358;2023-01-25T00:54:33;89120.56;;;12.60;49.46
8047;BME280;67150;42.516;23.358;2023-01-25T00:57:01;89125.16;;;12.55;49.34
8047;BME280;67150;42.516;23.358;2023-01-25T00:59:28;89119.75;;;12.60;49.09
8047;BME280;67150;42.516;23.358;2023-01-25T01:01:57;89111.09;;;12.51;49.25
8047;BME280;67150;42.516;23.358;2023-01-25T01:04:25;89118.59;;;12.53;49.40
8047;BME280;67150;42.516;23.358;2023-01-25T01:06:53;89122.63;;;12.55;49.07
8047;BME280;67150;42.516;23.358;2023-01-25T01:09:22;89120.19;;;12.54;49.23
8047;BME280;67150;42.516;23.358;2023-01-25T01:11:50;89130.16;;;12.44;49.36
8047;BME280;67150;42.516;23.358;2023-01-25T01:14:18;89132.47;;;12.47;49.22
8047;BME280;67150;42.516;23.358;2023-01-25T01:16:46;89129.13;;;12.47;49.29
8047;BME280;67150;42.516;23.358;2023-01-25T01:19:15;89125.19;;;12.43;49.45
8047;BME280;67150;42.516;23.358;2023-01-25T01:21:42;89121.97;;;12.41;49.45
8047;BME280;67150;42.516;23.358;2023-01-25T01:24:10;89122.16;;;12.38;49.30
8047;BME280;67150;42.516;23.358;2023-01-25T01:26:38;89124.69;;;12.38;49.57
8047;BME280;67150;42.516;23.358;2023-01-25T01:29:05;89123.63;;;12.29;49.52
8047;BME280;67150;42.516;23.358;2023-01-25T01:31:33;89113.81;;;12.24;49.60
8047;BME280;67150;42.516;23.358;2023-01-25T01:34:00;89125.44;;;12.27;49.64
8047;BME280;67150;42.516;23.358;2023-01-25T01:36:30;89116.13;;;12.27;49.56
8047;BME280;67150;42.516;23.358;2023-01-25T01:38:57;89122.09;;;12.26;49.62
8047;BME280;67150;42.516;23.358;2023-01-25T01:41:26;89115.44;;;12.25;49.59
8047;BME280;67150;42.516;23.358;2023-01-25T01:43:53;89114.13;;;12.20;49.67
8047;BME280;67150;42.516;23.358;2023-01-25T01:46:36;89110.72;;;12.21;49.91
8047;BME280;67150;42.516;23.358;2023-01-25T01:49:09;89107.56;;;12.17;49.79
8047;BME280;67150;42.516;23.358;2023-01-25T01:51:43;89099.19;;;12.17;49.70
8047;BME280;67150;42.516;23.358;2023-01-25T01:54:15;89089.38;;;12.12;49.86
8047;BME280;67150;42.516;23.358;2023-01-25T01:56:47;89099.47;;;12.12;49.73
8047;BME280;67150;42.516;23.358;2023-01-25T01:59:18;89086.19;;;11.98;49.78
8047;BME280;67150;42.516;23.358;2023-01-25T02:01:47;89103.16;;;12.08;49.74
8047;BME280;67150;42.516;23.358;2023-01-25T02:04:17;89105.97;;;12.04;49.80
8047;BME280;67150;42.516;23.358;2023-01-25T02:06:53;89101.03;;;12.02;49.96
8047;BME280;67150;42.516;23.358;2023-01-25T02:09:23;89101.03;;;12.02;50.02
8047;BME280;67150;42.516;23.358;2023-01-25T02:11:52;89103.16;;;12.08;49.71
8047;BME280;67150;42.516;23.358;2023-01-25T02:14:22;89100.84;;;12.05;49.81
8047;BME280;67150;42.516;23.358;2023-01-25T02:16:49;89091.84;;;12.01;49.82
8047;BME280;67150;42.516;23.358;2023-01-25T02:19:28;89092.97;;;11.97;50.14
8047;BME280;67150;42.516;23.358;2023-01-25T02:22:00;89100.34;;;12.00;49.86
8047;BME280;67150;42.516;23.358;2023-01-25T02:24:33;89097.09;;;11.98;49.96
8047;BME280;67150;42.516;23.358;2023-01-25T02:27:03;89099.03;;;11.95;49.84
8047;BME280;67150;42.516;23.358;2023-01-25T02:29:30;89101.66;;;11.93;50.02
8047;BME280;67150;42.516;23.358;2023-01-25T02:31:59;89103.38;;;11.93;50.01
8047;BME280;67150;42.516;23.358;2023-01-25T02:34:26;89096.59;;;11.93;49.77
8047;BME280;67150;42.516;23.358;2023-01-25T02:36:54;89095.09;;;11.91;49.95
8047;BME280;67150;42.516;23.358;2023-01-25T02:39:21;89095.50;;;11.85;50.06
8047;BME280;67150;42.516;23.358;2023-01-25T02:41:51;89093.00;;;11.85;50.14
8047;BME280;67150;42.516;23.358;2023-01-25T02:44:22;89088.84;;;11.84;49.99
8047;BME280;67150;42.516;23.358;2023-01-25T02:46:51;89085.81;;;11.78;49.94
8047;BME280;67150;42.516;23.358;2023-01-25T02:49:18;89090.75;;;11.80;50.12
8047;BME280;67150;42.516;23.358;2023-01-25T02:51:48;89090.25;;;11.75;50.10
8047;BME280;67150;42.516;23.358;2023-01-25T02:54:17;89102.88;;;11.75;50.12
8047;BME280;67150;42.516;23.358;2023-01-25T02:56:45;89102.00;;;11.76;49.95
8047;BME280;67150;42.516;23.358;2023-01-25T02:59:13;89088.03;;;11.58;50.05
8047;BME280;67150;42.516;23.358;2023-01-25T03:01:42;89104.19;;;11.68;50.23
8047;BME280;67150;42.516;23.358;2023-01-25T03:04:10;89101.88;;;11.65;50.26
8047;BME280;67150;42.516;23.358;2023-01-25T03:06:38;89096.63;;;11.68;50.13
8047;BME280;67150;42.516;23.358;2023-01-25T03:09:07;89090.03;;;11.65;50.33
8047;BME280;67150;42.516;23.358;2023-01-25T03:11:36;89095.53;;;11.72;50.32
8047;BME280;67150;42.516;23.358;2023-01-25T03:14:04;89098.22;;;11.69;49.98
8047;BME280;67150;42.516;23.358;2023-01-25T03:16:31;89096.09;;;11.63;50.30
8047;BME280;67150;42.516;23.358;2023-01-25T03:19:01;89101.88;;;11.65;50.26
8047;BME280;67150;42.516;23.358;2023-01-25T03:21:28;89101.56;;;11.57;50.32
8047;BME280;67150;42.516;23.358;2023-01-25T03:23:57;89097.13;;;11.60;50.25
8047;BME280;67150;42.516;23.358;2023-01-25T03:26:27;89095.31;;;11.62;50.23
8047;BME280;67150;42.516;23.358;2023-01-25T03:28:54;89092.06;;;11.48;50.44
8047;BME280;67150;42.516;23.358;2023-01-25T03:31:22;89089.06;;;11.55;50.35
8047;BME280;67150;42.516;23.358;2023-01-25T03:33:50;89093.50;;;11.52;50.45
8047;BME280;67150;42.516;23.358;2023-01-25T03:36:19;89095.59;;;11.58;50.28
8047;BME280;67150;42.516;23.358;2023-01-25T03:38:46;89096.13;;;11.50;50.27
8047;BME280;67150;42.516;23.358;2023-01-25T03:41:14;89091.47;;;11.44;50.56
8047;BME280;67150;42.516;23.358;2023-01-25T03:43:41;89099.44;;;11.51;50.36
8047;BME280;67150;42.516;23.358;2023-01-25T03:46:09;89095.72;;;11.44;50.36
8047;BME280;67150;42.516;23.358;2023-01-25T03:48:36;89097.53;;;11.42;50.31
8047;BME280;67150;42.516;23.358;2023-01-25T03:51:04;89095.50;;;11.47;50.39
8047;BME280;67150;42.516;23.358;2023-01-25T03:53:33;89086.03;;;11.50;50.13
8047;BME280;67150;42.516;23.358;2023-01-25T03:56:02;89083.00;;;11.33;50.27
8047;BME280;67150;42.516;23.358;2023-01-25T03:58:32;89083.41;;;11.27;50.77
8047;BME280;67150;42.516;23.358;2023-01-25T04:01:00;89084.41;;;11.24;50.87
8047;BME280;67150;42.516;23.358;2023-01-25T04:03:29;89084.59;;;11.34;50.75
8047;BME280;67150;42.516;23.358;2023-01-25T04:05:56;89073.19;;;11.28;50.51
8047;BME280;67150;42.516;23.358;2023-01-25T04:08:25;89075.03;;;11.26;50.68
8047;BME280;67150;42.516;23.358;2023-01-25T04:10:56;89074.63;;;11.32;50.53
8047;BME280;67150;42.516;23.358;2023-01-25T04:13:24;89078.97;;;11.30;50.59
8047;BME280;67150;42.516;23.358;2023-01-25T04:15:52;89081.16;;;11.22;50.87
8047;BME280;67150;42.516;23.358;2023-01-25T04:18:20;89081.25;;;11.33;50.42
8047;BME280;67150;42.516;23.358;2023-01-25T04:20:51;89080.28;;;11.36;50.33
8047;BME280;67150;42.516;23.358;2023-01-25T04:23:20;89091.06;;;11.38;50.40
8047;BME280;67150;42.516;23.358;2023-01-25T04:25:51;89086.31;;;11.46;50.14
8047;BME280;67150;42.516;23.358;2023-01-25T04:28:21;89088.16;;;11.44;50.21
8047;BME280;67150;42.516;23.358;2023-01-25T04:30:48;89090.47;;;11.47;50.18
8047;BME280;67150;42.516;23.358;2023-01-25T04:33:16;89084.72;;;11.45;50.16
8047;BME280;67150;42.516;23.358;2023-01-25T04:35:44;89093.88;;;11.46;50.01
8047;BME280;67150;42.516;23.358;2023-01-25T04:38:12;89090.75;;;11.42;50.00
8047;BME280;67150;42.516;23.358;2023-01-25T04:40:39;89084.19;;;11.40;50.06
8047;BME280;67150;42.516;23.358;2023-01-25T04:43:08;89093.41;;;11.41;49.96
8047;BME280;67150;42.516;23.358;2023-01-25T04:45:38;89092.69;;;11.39;50.15
8047;BME280;67150;42.516;23.358;2023-01-25T04:48:08;89095.31;;;11.37;49.99
8047;BME280;67150;42.516;23.358;2023-01-25T04:50:36;89093.28;;;11.30;50.26
8047;BME280;67150;42.516;23.358;2023-01-25T04:53:05;89092.69;;;11.26;50.23
8047;BME280;67150;42.516;23.358;2023-01-25T04:55:33;89085.72;;;11.30;50.30
8047;BME280;67150;42.516;23.358;2023-01-25T04:58:01;89084.22;;;11.27;50.37
8047;BME280;67150;42.516;23.358;2023-01-25T05:00:29;89080.97;;;11.25;50.22
8047;BME280;67150;42.516;23.358;2023-01-25T05:02:58;89091.06;;;11.25;50.33
8047;BME280;67150;42.516;23.358;2023-01-25T05:05:26;89086.22;;;11.22;50.36
8047;BME280;67150;42.516;23.358;2023-01-25T05:07:53;89085.59;;;11.18;50.26
8047;BME280;67150;42.516;23.358;2023-01-25T05:10:21;89088.94;;;11.19;50.32
8047;BME280;67150;42.516;23.358;2023-01-25T05:12:49;89083.88;;;11.19;50.30
8047;BME280;67150;42.516;23.358;2023-01-25T05:15:19;89084.41;;;11.24;50.40
8047;BME280;67150;42.516;23.358;2023-01-25T05:17:46;89079.47;;;11.22;50.22
8047;BME280;67150;42.516;23.358;2023-01-25T05:20:16;89093.88;;;11.20;50.32
8047;BME280;67150;42.516;23.358;2023-01-25T05:22:43;89089.03;;;11.17;50.25
8047;BME280;67150;42.516;23.358;2023-01-25T05:25:11;89086.72;;;11.14;50.33
8047;BME280;67150;42.516;23.358;2023-01-25T05:27:52;89092.38;;;11.18;50.22
8047;BME280;67150;42.516;23.358;2023-01-25T05:30:19;89089.03;;;11.17;50.21
8047;BME280;67150;42.516;23.358;2023-01-25T05:32:47;89086.81;;;11.13;50.39
8047;BME280;67150;42.516;23.358;2023-01-25T05:35:17;89091.66;;;11.16;50.17
8047;BME280;67150;42.516;23.358;2023-01-25T05:37:44;89089.13;;;11.16;50.19
8047;BME280;67150;42.516;23.358;2023-01-25T05:40:12;89091.25;;;11.09;50.42
8047;BME280;67150;42.516;23.358;2023-01-25T05:42:39;89087.81;;;11.10;50.42
8047;BME280;67150;42.516;23.358;2023-01-25T05:45:09;89088.22;;;11.17;51.07
8047;BME280;67150;42.516;23.358;2023-01-25T05:50:37;89092.81;;;10.85;50.67
8047;BME280;67150;42.516;23.358;2023-01-25T05:53:04;89086.09;;;10.98;50.41
8047;BME280;67150;42.516;23.358;2023-01-25T05:55:34;89076.13;;;11.09;50.33
8047;BME280;67150;42.516;23.358;2023-01-25T05:58:01;89071.19;;;11.08;50.82
8047;BME280;67150;42.516;23.358;2023-01-25T06:00:28;89074.13;;;11.14;50.28
8047;BME280;67150;42.516;23.358;2023-01-25T06:02:59;89081.91;;;11.24;50.30
8047;BME280;67150;42.516;23.358;2023-01-25T06:05:26;89075.84;;;11.27;50.17
8047;BME280;67150;42.516;23.358;2023-01-25T06:07:55;89079.75;;;11.31;50.48
8047;BME280;67150;42.516;23.358;2023-01-25T06:10:23;89078.97;;;11.30;50.46
8047;BME280;67150;42.516;23.358;2023-01-25T06:12:55;89085.63;;;11.31;50.29
8047;BME280;67150;42.516;23.358;2023-01-25T06:15:23;89082.88;;;11.34;50.43
8047;BME280;67150;42.516;23.358;2023-01-25T06:17:53;89089.25;;;11.40;50.56
8047;BME280;67150;42.516;23.358;2023-01-25T06:20:20;89084.19;;;11.40;50.62
8047;BME280;67150;42.516;23.358;2023-01-25T06:22:48;89086.63;;;11.79;52.18
8047;BME280;67150;42.516;23.358;2023-01-25T06:25:17;89086.78;;;12.01;50.86
8047;BME280;67150;42.516;23.358;2023-01-25T06:27:45;89083.28;;;11.66;50.10
8047;BME280;67150;42.516;23.358;2023-01-25T06:30:12;89100.09;;;10.09;49.53
8047;BME280;67150;42.516;23.358;2023-01-25T06:32:40;89094.56;;;10.97;50.16
8047;BME280;67150;42.516;23.358;2023-01-25T06:35:08;89096.72;;;11.29;49.61
8047;BME280;67150;42.516;23.358;2023-01-25T06:37:35;89099.25;;;11.41;49.60
8047;BME280;67150;42.516;23.358;2023-01-25T06:40:03;89092.50;;;11.42;49.47
8047;BME280;67150;42.516;23.358;2023-01-25T06:42:31;89089.03;;;11.43;49.36
8047;BME280;67150;42.516;23.358;2023-01-25T06:44:59;89098.31;;;11.42;49.28
8047;BME280;67150;42.516;23.358;2023-01-25T06:47:26;89103.38;;;11.42;49.40
8047;BME280;67150;42.516;23.358;2023-01-25T06:49:53;89096.72;;;11.41;49.21
8047;BME280;67150;42.516;23.358;2023-01-25T06:52:21;89085.63;;;11.31;49.36
8047;BME280;67150;42.516;23.358;2023-01-25T06:54:48;89093.09;;;11.33;49.34
8047;BME280;67150;42.516;23.358;2023-01-25T06:57:15;89086.63;;;11.29;49.53
8047;BME280;67150;42.516;23.358;2023-01-25T06:59:44;89084.78;;;11.31;49.31
8047;BME280;67150;42.516;23.358;2023-01-25T07:02:13;89090.03;;;11.27;49.22
8047;BME280;67150;42.516;23.358;2023-01-25T07:04:41;89085.94;;;11.27;49.39
8047;BME280;67150;42.516;23.358;2023-01-25T07:07:08;89092.56;;;11.27;49.23
8047;BME280;67150;42.516;23.358;2023-01-25T07:09:36;89093.88;;;11.20;49.21
8047;BME280;67150;42.516;23.358;2023-01-25T07:12:04;89089.03;;;11.17;49.65
8047;BME280;67150;42.516;23.358;2023-01-25T07:14:31;89077.03;;;11.08;49.39
8047;BME280;67150;42.516;23.358;2023-01-25T07:17:00;89097.50;;;11.16;49.21
8047;BME280;67150;42.516;23.358;2023-01-25T07:19:27;89092.56;;;11.15;49.42
8047;BME280;67150;42.516;23.358;2023-01-25T07:21:55;89086.81;;;11.13;49.28
8047;BME280;67150;42.516;23.358;2023-01-25T07:24:22;89092.78;;;11.12;49.44
8047;BME280;67150;42.516;23.358;2023-01-25T07:26:51;89102.06;;;11.11;49.36
8047;BME280;67150;42.516;23.358;2023-01-25T07:29:19;89101.34;;;11.09;49.43
8047;BME280;67150;42.516;23.358;2023-01-25T07:31:46;89095.06;;;11.02;49.66
8047;BME280;67150;42.516;23.358;2023-01-25T07:34:15;89091.75;;;11.02;49.66
8047;BME280;67150;42.516;23.358;2023-01-25T07:36:42;89094.19;;;11.03;49.36
8047;BME280;67150;42.516;23.358;2023-01-25T07:39:11;89083.25;;;10.90;49.50
8047;BME280;67150;42.516;23.358;2023-01-25T07:41:39;89105.34;;;10.99;49.48
8047;BME280;67150;42.516;23.358;2023-01-25T07:44:06;89105.16;;;11.02;49.48
8047;BME280;67150;42.516;23.358;2023-01-25T07:46:33;89105.56;;;10.96;49.50
8047;BME280;67150;42.516;23.358;2023-01-25T07:49:00;89104.31;;;10.89;49.64
8047;BME280;67150;42.516;23.358;2023-01-25T07:51:29;89102.53;;;10.91;49.60
8047;BME280;67150;42.516;23.358;2023-01-25T07:53:58;89109.47;;;10.88;49.57
8047;BME280;67150;42.516;23.358;2023-01-25T07:56:27;89109.97;;;10.93;49.40
8047;BME280;67150;42.516;23.358;2023-01-25T07:58:56;89107.66;;;10.90;49.45
8047;BME280;67150;42.516;23.358;2023-01-25T08:01:26;89109.56;;;10.86;49.35
8047;BME280;67150;42.516;23.358;2023-01-25T08:03:54;89113.88;;;10.84;49.56
8047;BME280;67150;42.516;23.358;2023-01-25T08:06:23;89113.19;;;10.82;49.75
8047;BME280;67150;42.516;23.358;2023-01-25T08:08:53;89113.88;;;10.84;49.32
8047;BME280;67150;42.516;23.358;2023-01-25T08:11:23;89108.97;;;10.83;49.43
8047;BME280;67150;42.516;23.358;2023-01-25T08:13:51;89109.56;;;10.86;49.50
8047;BME280;67150;42.516;23.358;2023-01-25T08:16:20;89113.19;;;10.82;49.52
8047;BME280;67150;42.516;23.358;2023-01-25T08:18:52;89082.91;;;10.69;49.45
8047;BME280;67150;42.516;23.358;2023-01-25T08:21:21;89074.59;;;10.55;49.93
8047;BME280;67150;42.516;23.358;2023-01-25T08:23:50;89103.50;;;10.76;49.62
8047;BME280;67150;42.516;23.358;2023-01-25T08:26:19;89109.31;;;10.64;50.07
8047;BME280;67150;42.516;23.358;2023-01-25T08:28:46;89108.91;;;10.70;49.90
8047;BME280;67150;42.516;23.358;2023-01-25T08:31:15;89109.81;;;10.69;49.64
8047;BME280;67150;42.516;23.358;2023-01-25T08:33:43;89081.88;;;10.59;49.77
8047;BME280;67150;42.516;23.358;2023-01-25T08:36:12;89099.84;;;10.67;49.54
8047;BME280;67150;42.516;23.358;2023-01-25T08:38:40;89109.88;;;10.55;50.11
8047;BME280;67150;42.516;23.358;2023-01-25T08:41:09;89103.63;;;10.60;49.78
8047;BME280;67150;42.516;23.358;2023-01-25T08:43:38;89105.69;;;10.68;49.83
8047;BME280;67150;42.516;23.358;2023-01-25T08:46:05;89103.38;;;10.65;49.56
8047;BME280;67150;42.516;23.358;2023-01-25T08:48:33;89094.88;;;10.53;49.73
8047;BME280;67150;42.516;23.358;2023-01-25T08:51:01;89100.41;;;10.58;49.84
8047;BME280;67150;42.516;23.358;2023-01-25T08:53:29;89091.41;;;10.54;50.19
8047;BME280;67150;42.516;23.358;2023-01-25T08:56:02;89092.03;;;10.58;49.92
8047;BME280;67150;42.516;23.358;2023-01-25T08:58:30;89092.53;;;10.50;50.03
8047;BME280;67150;42.516;23.358;2023-01-25T09:01:02;89092.72;;;10.47;50.26
8047;BME280;67150;42.516;23.358;2023-01-25T09:03:30;89091.41;;;10.54;49.90
8047;BME280;67150;42.516;23.358;2023-01-25T09:05:58;89094.69;;;10.42;50.12
8047;BME280;67150;42.516;23.358;2023-01-25T09:08:25;89086.69;;;10.50;50.12
8047;BME280;67150;42.516;23.358;2023-01-25T09:10:52;89093.13;;;10.54;50.10
8047;BME280;67150;42.516;23.358;2023-01-25T09:13:20;89095.84;;;10.51;50.10
8047;BME280;67150;42.516;23.358;2023-01-25T09:15:47;89094.94;;;10.52;50.05
8047;BME280;67150;42.516;23.358;2023-01-25T09:18:16;89093.44;;;10.49;49.94
8047;BME280;67150;42.516;23.358;2023-01-25T09:20:43;89085.44;;;10.43;50.05
8047;BME280;67150;42.516;23.358;2023-01-25T09:23:10;89087.44;;;10.38;50.40
8047;BME280;67150;42.516;23.358;2023-01-25T09:25:37;89082.41;;;10.38;50.27
8047;BME280;67150;42.516;23.358;2023-01-25T09:28:05;89082.41;;;10.38;50.12
8047;BME280;67150;42.516;23.358;2023-01-25T09:30:38;89083.69;;;10.31;50.65
8047;BME280;67150;42.516;23.358;2023-01-25T09:33:07;89073.09;;;10.26;50.54
8047;BME280;67150;42.516;23.358;2023-01-25T09:35:35;89074.34;;;10.33;50.48
8047;BME280;67150;42.516;23.358;2023-01-25T09:38:03;89076.13;;;10.31;50.55
8047;BME280;67150;42.516;23.358;2023-01-25T09:40:34;89073.53;;;10.32;50.24
8047;BME280;67150;42.516;23.358;2023-01-25T09:43:05;89071.91;;;10.31;50.50
8047;BME280;67150;42.516;23.358;2023-01-25T09:45:42;89062.59;;;10.19;50.79
8047;BME280;67150;42.516;23.358;2023-01-25T09:48:19;89055.13;;;10.18;50.79
8047;BME280;67150;42.516;23.358;2023-01-25T09:51:09;89050.81;;;10.20;50.55
8047;BME280;67150;42.516;23.358;2023-01-25T09:53:46;89030.78;;;10.18;50.79
8047;BME280;67150;42.516;23.358;2023-01-25T09:56:21;89020.63;;;10.05;50.77
8047;BME280;67150;42.516;23.358;2023-01-25T09:58:52;89040.22;;;10.15;50.82
8047;BME280;67150;42.516;23.358;2023-01-25T10:01:25;89035.00;;;10.18;50.51
8047;BME280;67150;42.516;23.358;2023-01-25T10:03:57;89037.69;;;10.15;50.59
8047;BME280;67150;42.516;23.358;2023-01-25T10:06:36;89030.31;;;10.11;50.72
8047;BME280;67150;42.516;23.358;2023-01-25T10:09:12;89022.94;;;10.08;50.82
8047;BME280;67150;42.516;23.358;2023-01-25T10:11:44;89018.78;;;10.22;50.38
8047;BME280;67150;42.516;23.358;2023-01-25T10:14:14;89012.16;;;10.06;51.05
8047;BME280;67150;42.516;23.358;2023-01-25T10:17:05;89022.69;;;10.13;50.83
8047;BME280;67150;42.516;23.358;2023-01-25T10:19:46;89019.25;;;10.14;50.56
8047;BME280;67150;42.516;23.358;2023-01-25T10:22:22;89007.31;;;10.03;50.67
8047;BME280;67150;42.516;23.358;2023-01-25T10:25:03;89006.50;;;10.03;51.07
8047;BME280;67150;42.516;23.358;2023-01-25T10:27:39;89003.47;;;9.98;50.99
8047;BME280;67150;42.516;23.358;2023-01-25T10:30:23;89010.75;;;10.02;51.19
8047;BME280;67150;42.516;23.358;2023-01-25T10:32:54;89005.19;;;9.97;51.01
8047;BME280;67150;42.516;23.358;2023-01-25T10:35:26;89003.75;;;9.93;51.00
8047;BME280;67150;42.516;23.358;2023-01-25T10:38:02;89003.66;;;9.95;51.16
8047;BME280;67150;42.516;23.358;2023-01-25T10:40:36;89000.03;;;9.99;50.75
8047;BME280;67150;42.516;23.358;2023-01-25T10:43:10;89001.75;;;9.98;51.01
8047;BME280;67150;42.516;23.358;2023-01-25T10:45:40;88987.75;;;9.94;50.98
8047;BME280;67150;42.516;23.358;2023-01-25T10:48:14;88979.28;;;9.95;50.91
8047;BME280;67150;42.516;23.358;2023-01-25T10:50:46;88978.78;;;9.90;51.04
8047;BME280;67150;42.516;23.358;2023-01-25T10:53:23;88967.81;;;9.91;50.92
8047;BME280;67150;42.516;23.358;2023-01-25T10:56:04;88976.97;;;9.92;51.23
8047;BME280;67150;42.516;23.358;2023-01-25T10:58:34;88971.41;;;9.87;50.98
8047;BME280;67150;42.516;23.358;2023-01-25T11:01:03;88964.38;;;9.92;50.91
8047;BME280;67150;42.516;23.358;2023-01-25T11:03:35;88971.22;;;9.90;51.15
8047;BME280;67150;42.516;23.358;2023-01-25T11:06:05;88964.47;;;9.91;51.08
8047;BME280;67150;42.516;23.358;2023-01-25T11:08:35;88932.28;;;9.69;51.11
8047;BME280;67150;42.516;23.358;2023-01-25T11:11:24;88946.00;;;9.78;51.04
8047;BME280;67150;42.516;23.358;2023-01-25T11:13:52;88966.50;;;9.86;50.95
8047;BME280;67150;42.516;23.358;2023-01-25T11:16:31;88954.78;;;9.85;51.33
8047;BME280;67150;42.516;23.358;2023-01-25T11:19:00;88961.34;;;9.87;50.87
8047;BME280;67150;42.516;23.358;2023-01-25T11:21:30;88950.56;;;9.85;51.21
8047;BME280;67150;42.516;23.358;2023-01-25T11:24:15;88937.66;;;9.77;51.17
8047;BME280;67150;42.516;23.358;2023-01-25T11:26:43;88945.81;;;9.81;51.03
8047;BME280;67150;42.516;23.358;2023-01-25T11:29:13;88946.00;;;9.78;51.35
8047;BME280;67150;42.516;23.358;2023-01-25T11:31:42;88942.88;;;9.74;51.10
8047;BME280;67150;42.516;23.358;2023-01-25T11:34:14;88941.06;;;9.76;51.19
8047;BME280;67150;42.516;23.358;2023-01-25T11:36:51;88925.34;;;9.73;51.35
8047;BME280;67150;42.516;23.358;2023-01-25T11:39:36;88930.31;;;9.74;51.30
8047;BME280;67150;42.516;23.358;2023-01-25T11:42:13;88927.78;;;9.74;51.45
8047;BME280;67150;42.516;23.358;2023-01-25T11:45:08;88927.69;;;9.76;51.45
8047;BME280;67150;42.516;23.358;2023-01-25T11:47:51;88915.22;;;9.74;51.48
8047;BME280;67150;42.516;23.358;2023-01-25T11:50:27;88918.38;;;9.64;51.28
8047;BME280;67150;42.516;23.358;2023-01-25T11:53:24;88909.63;;;9.69;51.17
8047;BME280;67150;42.516;23.358;2023-01-25T11:56:00;88909.06;;;9.66;51.46
8047;BME280;67150;42.516;23.358;2023-01-25T11:58:42;88902.41;;;9.65;51.30
8047;BME280;67150;42.516;23.358;2023-01-25T12:01:21;88888.31;;;9.62;51.63
8047;BME280;67150;42.516;23.358;2023-01-25T12:06:58;88894.34;;;9.60;51.67
8047;BME280;67150;42.516;23.358;2023-01-25T12:09:54;88894.34;;;9.60;51.66
8047;BME280;67150;42.516;23.358;2023-01-25T12:12:41;88893.59;;;9.57;51.47
8047;BME280;67150;42.516;23.358;2023-01-25T12:15:26;88891.81;;;9.60;51.66
8047;BME280;67150;42.516;23.358;2023-01-25T12:18:15;88887.56;;;9.60;51.38
8047;BME280;67150;42.516;23.358;2023-01-25T12:21:02;88885.44;;;9.54;51.68
8047;BME280;67150;42.516;23.358;2023-01-25T12:23:50;88879.44;;;9.56;51.64
8047;BME280;67150;42.516;23.358;2023-01-25T12:26:23;88886.34;;;9.53;51.51
8047;BME280;67150;42.516;23.358;2023-01-25T12:29:01;88890.19;;;9.58;51.36
8047;BME280;67150;42.516;23.358;2023-01-25T12:31:36;88882.41;;;9.49;51.97
8047;BME280;67150;42.516;23.358;2023-01-25T12:34:11;88879.00;;;9.50;51.80
8047;BME280;67150;42.516;23.358;2023-01-25T12:36:44;88878.13;;;9.51;51.21
8047;BME280;67150;42.516;23.358;2023-01-25T12:39:13;88884.22;;;9.47;51.70
8047;BME280;67150;42.516;23.358;2023-01-25T12:41:45;88880.09;;;9.46;51.56
8047;BME280;67150;42.516;23.358;2023-01-25T12:44:20;88881.72;;;9.47;51.50
8047;BME280;67150;42.516;23.358;2023-01-25T12:46:55;88878.31;;;9.48;51.50
8047;BME280;67150;42.516;23.358;2023-01-25T12:49:28;88871.47;;;9.50;51.63
8047;BME280;67150;42.516;23.358;2023-01-25T12:52:00;88868.25;;;9.48;51.59
8047;BME280;67150;42.516;23.358;2023-01-25T12:54:33;88873.34;;;9.46;51.44
8047;BME280;67150;42.516;23.358;2023-01-25T12:57:10;88865.00;;;9.46;51.73
8047;BME280;67150;42.516;23.358;2023-01-25T12:59:48;88860.78;;;9.46;51.59
8047;BME280;67150;42.516;23.358;2023-01-25T13:02:45;88857.56;;;9.44;51.80
8047;BME280;67150;42.516;23.358;2023-01-25T13:05:24;88853.34;;;9.45;51.61
8047;BME280;67150;42.516;23.358;2023-01-25T13:08:02;88850.09;;;9.43;51.86
8047;BME280;67150;42.516;23.358;2023-01-25T13:10:35;88847.56;;;9.43;51.71
8047;BME280;67150;42.516;23.358;2023-01-25T13:13:19;88850.66;;;9.34;51.88
8047;BME280;67150;42.516;23.358;2023-01-25T13:15:48;88852.28;;;9.35;52.04
8047;BME280;67150;42.516;23.358;2023-01-25T13:18:34;88838.81;;;9.36;51.83
8047;BME280;67150;42.516;23.358;2023-01-25T13:21:06;88845.44;;;9.37;51.75
8047;BME280;67150;42.516;23.358;2023-01-25T13:23:38;88848.88;;;9.36;51.95
8047;BME280;67150;42.516;23.358;2023-01-25T13:26:41;88849.59;;;9.38;51.77
